< < Back
Terminal Aerodrome Forecast


Current Version              Previous Versions:   1  2  3  4  5  6  7  8  9  

Terminal Aerodrome Forecast

399
FTUS42 KGSP 270525
TAFHKY
TAF
KHKY 270525Z 2706/2806 25008KT P6SM BKN060
     FM270800 34005KT 5SM -SHRA BR OVC050
     FM271100 03005KT 6SM -SHRA BR OVC020
     FM271400 03006KT P6SM OVC020
     FM271800 36006KT P6SM BKN045
     FM280100 32006KT P6SM BKN080=

Latest METAR

010
SAUS70 KWBC 271300 RRD
MTRHKY
METAR KHKY 271253Z 02007KT 7SM -RA FEW021 BKN029 OVC050 07/05 A2977 RMK
AO2 SLP066 P0004 T00720050


USA.gov is the U.S. government's official web portal to all federal, state and local government web resources and services.